Аэропорт
Алматы (UAAA)

 UAAA / ALA
ЗЦ Центральная Азия
Алматы (UAAA)
Алматы (UAAA)
 43.35210, 77.04050  / 2234 ft

 UAAA 111630Z 00000MPS 0450 R05L/1300N R05R/1200D FZFG SCT100 BKN200 M01/M03 Q1024 R88/91//50 NOSIG
 UAAA 110810Z 1108/1206 04003MPS 2000 BR FU BKN020CB BKN100 TX04/1109Z TNM03/1201Z TEMPO 1108/1111 3100 TEMPO 1111/1115 0300 FG BECMG 1115/1116 16003MPS 1000 TEMPO 1115/1124 0200 FZFG VV001 TEMPO 1200/1206 0200 FZFG VV001
UAAA charts
показать схемы
Название сценария Тип сценария Flight Simulator 9 Flight Simulator X Prepar3D v2 Prepar3D v3 Prepar3D v4 xPlane
Recommended scenery for FS9 бесплатный
Recommended scenery for FSX бесплатный


2018 © VATRUS division